createdAt,value
2022-11-20T00:00:13.155Z,96260.81
2022-11-20T00:01:17.021Z,96254.81
2022-11-20T00:02:18.863Z,96257.25
2022-11-20T00:03:20.712Z,96260.47
2022-11-20T00:04:22.663Z,96258.47
2022-11-20T00:05:24.520Z,96260.09
2022-11-20T00:06:27.010Z,96260.09
2022-11-20T00:07:28.845Z,96258.47
2022-11-20T00:08:30.731Z,96268.84
2022-11-20T00:09:32.554Z,96267.88
2022-11-20T00:10:37.077Z,96263.28
2022-11-20T00:11:38.976Z,96263.28
2022-11-20T00:12:40.726Z,96264.66
2022-11-20T00:13:42.795Z,96265.63
2022-11-20T00:14:44.545Z,96264.06
2022-11-20T00:15:46.341Z,96271.00
2022-11-20T00:16:48.205Z,96271.00
2022-11-20T00:17:49.926Z,96276.00
2022-11-20T00:18:52.326Z,96263.41
2022-11-20T00:19:54.255Z,96266.78
2022-11-20T00:21:01.535Z,96273.41
2022-11-20T00:22:03.365Z,96267.63
2022-11-20T00:23:05.159Z,96266.63
2022-11-20T00:24:07.228Z,96276.34
2022-11-20T00:25:09.070Z,96270.56
2022-11-20T00:26:13.068Z,96270.56
2022-11-20T00:27:14.823Z,96267.97
2022-11-20T00:28:16.615Z,96272.72
2022-11-20T00:29:18.720Z,96270.50
2022-11-20T00:30:21.105Z,96275.66
2022-11-20T00:31:23.169Z,96272.47
2022-11-20T00:32:25.000Z,96272.09
2022-11-20T00:33:26.877Z,96272.72
2022-11-20T00:34:28.652Z,96280.91
2022-11-20T00:35:31.013Z,96277.50
2022-11-20T00:36:34.143Z,96280.91
2022-11-20T00:37:35.959Z,96281.53
2022-11-20T00:38:37.965Z,96279.47
2022-11-20T00:39:39.747Z,96281.22
2022-11-20T00:40:41.628Z,96276.19
2022-11-20T00:41:43.400Z,96278.16
2022-11-20T00:42:45.143Z,96282.53
2022-11-20T00:43:46.952Z,96281.53
2022-11-20T00:44:49.030Z,96281.53
2022-11-20T00:45:50.830Z,96290.72
2022-11-20T00:46:52.671Z,96287.78
2022-11-20T00:47:54.502Z,96289.00
2022-11-20T00:48:56.423Z,96284.44
2022-11-20T00:49:58.209Z,96286.59
2022-11-20T00:51:00.150Z,96279.78
2022-11-20T00:52:02.034Z,96281.16
2022-11-20T00:53:03.778Z,96273.78
2022-11-20T00:54:05.638Z,96287.16
2022-11-20T00:55:07.659Z,96289.97
2022-11-20T00:56:11.930Z,96283.44
2022-11-20T00:57:13.709Z,96282.88
2022-11-20T00:58:15.514Z,96278.50
2022-11-20T00:59:17.411Z,96287.44
2022-11-20T01:00:19.313Z,96285.06
2022-11-20T01:01:22.518Z,96285.84
2022-11-20T01:02:24.430Z,96276.47
2022-11-20T01:03:27.301Z,96278.44
2022-11-20T01:04:29.230Z,96279.44
2022-11-20T01:05:35.195Z,96280.22
2022-11-20T01:06:38.240Z,96282.81
2022-11-20T01:07:40.104Z,96279.06
2022-11-20T01:08:42.086Z,96282.06
2022-11-20T01:09:43.968Z,96280.09
2022-11-20T01:10:45.782Z,96278.31
2022-11-20T01:11:47.701Z,96274.75
2022-11-20T01:13:09.372Z,96277.31
2022-11-20T01:14:12.992Z,96283.28
2022-11-20T01:15:14.821Z,96286.72
2022-11-20T01:16:18.086Z,96287.69
2022-11-20T01:17:19.915Z,96281.28
2022-11-20T01:18:21.717Z,96287.25
2022-11-20T01:19:25.220Z,96277.69
2022-11-20T01:20:27.310Z,96287.06
2022-11-20T01:21:33.141Z,96285.22
2022-11-20T01:22:34.948Z,96281.63
2022-11-20T01:23:37.702Z,96283.88
2022-11-20T01:24:39.528Z,96281.88
2022-11-20T01:25:41.466Z,96283.50
2022-11-20T01:26:44.159Z,96285.88
2022-11-20T01:27:45.974Z,96284.91
2022-11-20T01:28:48.318Z,96291.53
2022-11-20T01:29:50.190Z,96282.31
2022-11-20T01:30:52.081Z,96281.72
2022-11-20T01:31:54.426Z,96285.09
2022-11-20T01:32:56.783Z,96277.00
2022-11-20T01:34:00.187Z,96281.97
2022-11-20T01:35:02.020Z,96284.56
2022-11-20T01:36:07.646Z,96283.28
2022-11-20T01:37:09.394Z,96286.47
2022-11-20T01:38:11.235Z,96286.47
2022-11-20T01:39:14.821Z,96281.28
2022-11-20T01:40:16.648Z,96285.66
2022-11-20T01:41:37.212Z,96289.22
2022-11-20T01:42:57.255Z,96289.78
2022-11-20T01:43:59.659Z,96286.19
2022-11-20T01:45:02.322Z,96289.41
2022-11-20T01:46:16.446Z,96288.59
2022-11-20T01:47:26.866Z,96294.59
2022-11-20T01:48:37.622Z,96285.84
2022-11-20T01:49:42.173Z,96292.59
2022-11-20T01:50:44.330Z,96287.03
2022-11-20T01:51:53.972Z,96286.59
2022-11-20T01:53:11.319Z,96278.81
2022-11-20T01:54:17.106Z,96288.19
2022-11-20T01:55:20.433Z,96281.03
2022-11-20T01:56:22.690Z,96291.59
2022-11-20T01:57:26.359Z,96294.97
2022-11-20T01:58:34.449Z,96293.78
2022-11-20T01:59:37.099Z,96289.22
2022-11-20T02:00:38.900Z,96289.03
2022-11-20T02:01:40.898Z,96290.63
2022-11-20T02:02:45.241Z,96289.84
2022-11-20T02:03:47.886Z,96291.38
2022-11-20T02:04:53.036Z,96293.34
2022-11-20T02:05:54.727Z,96302.13
2022-11-20T02:07:02.061Z,96294.97
2022-11-20T02:08:04.801Z,96298.16
2022-11-20T02:09:06.627Z,96301.38
2022-11-20T02:10:08.648Z,96303.78
2022-11-20T02:11:10.752Z,96299.22
2022-11-20T02:12:32.667Z,96299.03
2022-11-20T02:13:44.346Z,96299.84
2022-11-20T02:14:46.204Z,96301.00
2022-11-20T02:15:48.548Z,96298.78
2022-11-20T02:16:50.960Z,96295.81
2022-11-20T02:17:52.808Z,96291.44
2022-11-20T02:18:56.098Z,96288.03
2022-11-20T02:19:57.968Z,96285.28
2022-11-20T02:21:08.049Z,96285.09
2022-11-20T02:22:15.801Z,96281.72
2022-11-20T02:23:32.693Z,96275.91
2022-11-20T02:24:35.001Z,96275.75
2022-11-20T02:25:38.094Z,96279.44
2022-11-20T02:26:45.640Z,96282.38
2022-11-20T02:27:48.028Z,96285.97
2022-11-20T02:28:50.722Z,96279.78
2022-11-20T02:29:54.343Z,96279.19
2022-11-20T02:30:56.232Z,96280.94
2022-11-20T02:32:00.107Z,96283.69
2022-11-20T02:33:01.911Z,96289.31
2022-11-20T02:34:03.785Z,96286.34
2022-11-20T02:35:09.217Z,96281.78
2022-11-20T02:36:12.892Z,96274.81
2022-11-20T02:37:15.343Z,96280.19
2022-11-20T02:38:17.188Z,96275.81
2022-11-20T02:39:20.445Z,96285.72
2022-11-20T02:40:23.133Z,96290.06
2022-11-20T02:41:31.648Z,96290.97
2022-11-20T02:42:33.455Z,96285.06
2022-11-20T02:43:35.196Z,96284.94
2022-11-20T02:44:36.939Z,96289.38
2022-11-20T02:45:38.953Z,96286.97
2022-11-20T02:46:40.876Z,96287.59
2022-11-20T02:47:42.675Z,96285.44
2022-11-20T02:48:44.564Z,96289.25
2022-11-20T02:49:46.429Z,96291.28
2022-11-20T02:50:48.346Z,96296.69
2022-11-20T02:51:50.241Z,96290.38
2022-11-20T02:52:52.076Z,96286.78
2022-11-20T02:53:53.910Z,96291.34
2022-11-20T02:54:55.688Z,96282.59
2022-11-20T02:55:57.632Z,96289.53
2022-11-20T02:56:59.470Z,96284.97
2022-11-20T02:58:01.240Z,96283.75
2022-11-20T02:59:03.195Z,96280.53
2022-11-20T03:00:05.451Z,96281.16
2022-11-20T03:01:07.337Z,96277.59
2022-11-20T03:02:09.208Z,96275.44
2022-11-20T03:03:10.978Z,96289.00
2022-11-20T03:04:12.909Z,96289.78
2022-11-20T03:05:14.775Z,96274.88
2022-11-20T03:06:17.793Z,96286.81
2022-11-20T03:07:19.585Z,96280.66
2022-11-20T03:08:21.435Z,96286.47
2022-11-20T03:09:23.547Z,96285.44
2022-11-20T03:10:25.765Z,96290.84
2022-11-20T03:11:28.197Z,96297.44
2022-11-20T03:12:29.997Z,96300.00
2022-11-20T03:13:31.823Z,96297.84
2022-11-20T03:14:33.679Z,96307.06
2022-11-20T03:15:36.942Z,96300.09
2022-11-20T03:16:38.822Z,96305.47
2022-11-20T03:17:40.606Z,96296.88
2022-11-20T03:18:43.029Z,96295.13
2022-11-20T03:19:44.866Z,96288.69
2022-11-20T03:20:46.750Z,96292.25
2022-11-20T03:21:48.629Z,96289.03
2022-11-20T03:22:50.486Z,96293.00
2022-11-20T03:23:52.258Z,96300.16
2022-11-20T03:24:54.061Z,96304.53
2022-11-20T03:25:55.937Z,96301.72
2022-11-20T03:26:57.755Z,96305.50
2022-11-20T03:27:59.524Z,96304.09
2022-11-20T03:29:02.810Z,96301.72
2022-11-20T03:30:05.465Z,96300.59
2022-11-20T03:31:08.198Z,96299.75
2022-11-20T03:32:10.096Z,96301.56
2022-11-20T03:33:11.948Z,96299.53
2022-11-20T03:34:14.011Z,96296.94
2022-11-20T03:35:15.918Z,96299.53
2022-11-20T03:36:19.388Z,96299.34
2022-11-20T03:37:21.170Z,96298.16
2022-11-20T03:38:22.997Z,96304.56
2022-11-20T03:39:24.828Z,96299.03
2022-11-20T03:40:26.634Z,96302.25
2022-11-20T03:41:29.843Z,96301.88
2022-11-20T03:42:46.923Z,96296.34
2022-11-20T03:44:07.964Z,96297.94
2022-11-20T03:45:09.999Z,96299.72
2022-11-20T03:46:11.848Z,96299.13
2022-11-20T03:47:13.728Z,96292.13
2022-11-20T03:48:15.593Z,96290.16
2022-11-20T03:49:17.426Z,96290.16
2022-11-20T03:50:19.227Z,96298.94
2022-11-20T03:51:25.630Z,96291.16
2022-11-20T03:52:27.430Z,96294.72
2022-11-20T03:53:29.230Z,96302.69
2022-11-20T03:54:31.115Z,96293.94
2022-11-20T03:55:32.897Z,96298.94
2022-11-20T03:56:36.391Z,96301.53
2022-11-20T03:57:38.255Z,96299.91
2022-11-20T03:58:40.931Z,96295.53
2022-11-20T03:59:42.712Z,96297.94
2022-11-20T04:00:44.620Z,96301.13
2022-11-20T04:01:49.435Z,96294.38
2022-11-20T04:02:51.605Z,96298.69
2022-11-20T04:03:54.655Z,96295.28
2022-11-20T04:04:56.408Z,96293.50
2022-11-20T04:06:02.579Z,96301.88
2022-11-20T04:07:04.653Z,96286.09
2022-11-20T04:08:06.706Z,96291.88
2022-11-20T04:09:08.575Z,96293.50
2022-11-20T04:10:10.395Z,96295.44
2022-11-20T04:11:19.989Z,96289.03
2022-11-20T04:12:21.938Z,96293.88
2022-11-20T04:13:23.853Z,96287.50
2022-11-20T04:14:25.740Z,96282.78
2022-11-20T04:15:27.502Z,96289.56
2022-11-20T04:16:33.878Z,96288.94
2022-11-20T04:17:35.715Z,96285.38
2022-11-20T04:18:37.723Z,96279.19
2022-11-20T04:19:39.564Z,96278.22
2022-11-20T04:20:41.419Z,96277.81
2022-11-20T04:21:43.930Z,96290.41
2022-11-20T04:22:45.863Z,96284.22
2022-11-20T04:23:47.757Z,96287.59
2022-11-20T04:24:49.539Z,96290.03
2022-11-20T04:25:51.556Z,96288.44
2022-11-20T04:26:53.341Z,96285.03
2022-11-20T04:27:55.845Z,96284.41
2022-11-20T04:28:58.860Z,96286.81
2022-11-20T04:30:00.693Z,96292.78
2022-11-20T04:31:03.814Z,96287.44
2022-11-20T04:32:05.725Z,96301.16
2022-11-20T04:33:07.539Z,96297.00
2022-11-20T04:34:09.542Z,96288.22
2022-11-20T04:35:11.372Z,96291.63
2022-11-20T04:36:14.616Z,96294.22
2022-11-20T04:37:16.449Z,96291.63
2022-11-20T04:38:19.028Z,96290.03
2022-11-20T04:39:21.231Z,96286.81
2022-11-20T04:40:23.227Z,96285.22
2022-11-20T04:41:26.302Z,96290.78
2022-11-20T04:42:30.994Z,96283.41
2022-11-20T04:43:33.688Z,96279.19
2022-11-20T04:44:35.589Z,96284.38
2022-11-20T04:45:37.554Z,96283.56
2022-11-20T04:46:40.753Z,96285.16
2022-11-20T04:47:42.520Z,96282.78
2022-11-20T04:48:44.757Z,96283.16
2022-11-20T04:49:46.707Z,96281.53
2022-11-20T04:50:48.653Z,96282.50
2022-11-20T04:51:50.472Z,96287.69
2022-11-20T04:52:52.271Z,96288.31
2022-11-20T04:53:54.501Z,96283.16
2022-11-20T04:54:56.583Z,96279.72
2022-11-20T04:56:02.575Z,96279.91
2022-11-20T04:57:04.396Z,96273.59
2022-11-20T04:58:06.236Z,96287.13
2022-11-20T04:59:08.038Z,96287.97
2022-11-20T05:00:10.214Z,96281.78
2022-11-20T05:01:13.930Z,96284.97
2022-11-20T05:02:15.841Z,96279.63
2022-11-20T05:03:17.644Z,96290.16
2022-11-20T05:04:19.558Z,96287.34
2022-11-20T05:05:21.638Z,96279.59
2022-11-20T05:06:23.653Z,96284.38
2022-11-20T05:07:25.507Z,96283.41
2022-11-20T05:08:27.324Z,96283.19
2022-11-20T05:09:29.175Z,96282.41
2022-11-20T05:10:31.056Z,96280.19
2022-11-20T05:11:33.206Z,96279.59
2022-11-20T05:12:34.952Z,96277.00
2022-11-20T05:13:37.109Z,96274.41
2022-11-20T05:14:39.070Z,96277.97
2022-11-20T05:15:41.090Z,96282.19
2022-11-20T05:16:43.163Z,96282.19
2022-11-20T05:17:49.310Z,96281.53
2022-11-20T05:18:51.882Z,96284.75
2022-11-20T05:19:53.729Z,96287.34
2022-11-20T05:20:56.217Z,96282.88
2022-11-20T05:21:58.211Z,96294.22
2022-11-20T05:23:00.438Z,96292.25
2022-11-20T05:24:02.222Z,96287.06
2022-11-20T05:25:04.024Z,96285.84
2022-11-20T05:26:06.756Z,96291.03
2022-11-20T05:27:08.670Z,96288.25
2022-11-20T05:28:10.473Z,96299.41
2022-11-20T05:29:13.342Z,96293.59
2022-11-20T05:30:15.401Z,96301.38
2022-11-20T05:31:26.223Z,96301.38
2022-11-20T05:32:29.384Z,96292.19
2022-11-20T05:33:31.193Z,96297.38
2022-11-20T05:34:33.227Z,96299.75
2022-11-20T05:35:35.149Z,96304.94
2022-11-20T05:36:37.095Z,96304.94
2022-11-20T05:37:38.923Z,96303.16
2022-11-20T05:38:40.755Z,96300.59
2022-11-20T05:39:42.563Z,96302.34
2022-11-20T05:40:44.401Z,96299.75
2022-11-20T05:41:46.283Z,96301.56
2022-11-20T05:42:47.999Z,96299.75
2022-11-20T05:43:51.052Z,96299.41
2022-11-20T05:44:52.986Z,96301.81
2022-11-20T05:45:55.623Z,96304.16
2022-11-20T05:46:57.427Z,96305.94
2022-11-20T05:48:01.297Z,96299.75
2022-11-20T05:49:03.199Z,96301.72
2022-11-20T05:50:05.173Z,96295.75
2022-11-20T05:51:08.603Z,96301.72
2022-11-20T05:52:10.455Z,96304.16
2022-11-20T05:53:12.188Z,96302.34
2022-11-20T05:54:14.541Z,96308.53
2022-11-20T05:55:16.388Z,96304.94
2022-11-20T05:56:19.518Z,96308.53
2022-11-20T05:57:21.419Z,96295.41
2022-11-20T05:58:23.281Z,96302.00
2022-11-20T05:59:25.164Z,96305.00
2022-11-20T06:00:26.966Z,96310.38
2022-11-20T06:01:28.827Z,96311.56
2022-11-20T06:02:30.743Z,96311.72
2022-11-20T06:03:32.691Z,96311.72
2022-11-20T06:04:34.548Z,96313.72
2022-11-20T06:05:36.391Z,96315.69
2022-11-20T06:06:38.231Z,96317.25
2022-11-20T06:07:40.113Z,96312.09
2022-11-20T06:08:42.422Z,96321.91
2022-11-20T06:09:44.282Z,96315.72
2022-11-20T06:10:46.087Z,96320.72
2022-11-20T06:11:47.886Z,96320.38
2022-11-20T06:12:49.723Z,96322.13
2022-11-20T06:13:51.494Z,96324.09
2022-11-20T06:14:53.277Z,96319.50
2022-11-20T06:15:55.348Z,96329.69
2022-11-20T06:16:57.150Z,96328.06
2022-11-20T06:18:00.139Z,96325.66
2022-11-20T06:19:01.971Z,96330.66
2022-11-20T06:20:03.888Z,96328.84
2022-11-20T06:21:10.139Z,96325.66
2022-11-20T06:22:12.041Z,96329.25
2022-11-20T06:23:13.976Z,96336.97
2022-11-20T06:24:15.743Z,96338.66
2022-11-20T06:25:17.507Z,96336.66
2022-11-20T06:26:24.205Z,96332.88
2022-11-20T06:27:25.960Z,96336.69
2022-11-20T06:28:27.845Z,96343.09
2022-11-20T06:29:33.914Z,96347.72
2022-11-20T06:30:36.530Z,96348.16
2022-11-20T06:31:39.037Z,96348.78
2022-11-20T06:32:40.798Z,96345.22
2022-11-20T06:33:43.278Z,96347.59
2022-11-20T06:34:45.200Z,96353.22
2022-11-20T06:35:47.047Z,96358.84
2022-11-20T06:36:48.815Z,96360.88
2022-11-20T06:37:50.556Z,96365.25
2022-11-20T06:38:52.493Z,96365.06
2022-11-20T06:39:54.347Z,96352.94
2022-11-20T06:40:56.291Z,96357.94
2022-11-20T06:41:59.315Z,96353.72
2022-11-20T06:43:01.317Z,96359.50
2022-11-20T06:44:04.611Z,96360.34
2022-11-20T06:45:06.731Z,96364.50
2022-11-20T06:46:10.082Z,96366.88
2022-11-20T06:47:12.775Z,96360.69
2022-11-20T06:48:14.786Z,96356.13
2022-11-20T06:49:16.571Z,96357.94
2022-11-20T06:50:18.508Z,96356.13
2022-11-20T06:51:20.398Z,96363.72
2022-11-20T06:52:22.277Z,96362.72
2022-11-20T06:53:24.743Z,96367.09
2022-11-20T06:54:26.568Z,96369.06
2022-11-20T06:55:28.328Z,96364.50
2022-11-20T06:56:30.195Z,96361.91
2022-11-20T06:57:32.060Z,96365.91
2022-11-20T06:58:34.608Z,96363.31
2022-11-20T06:59:36.570Z,96364.16
2022-11-20T07:00:38.434Z,96376.09
2022-11-20T07:01:40.364Z,96369.75
2022-11-20T07:02:42.233Z,96373.16
2022-11-20T07:03:44.099Z,96364.94
2022-11-20T07:04:45.882Z,96381.28
2022-11-20T07:05:47.756Z,96380.50
2022-11-20T07:06:49.870Z,96375.63
2022-11-20T07:07:51.713Z,96368.59
2022-11-20T07:08:56.151Z,96369.13
2022-11-20T07:09:58.195Z,96368.50
2022-11-20T07:11:01.350Z,96375.28
2022-11-20T07:12:03.212Z,96369.56
2022-11-20T07:13:05.014Z,96374.38
2022-11-20T07:14:06.843Z,96380.78
2022-11-20T07:15:08.828Z,96384.00
2022-11-20T07:16:10.684Z,96375.88
2022-11-20T07:17:12.770Z,96376.84
2022-11-20T07:18:14.643Z,96378.63
2022-11-20T07:19:16.644Z,96386.22
2022-11-20T07:20:18.657Z,96387.19
2022-11-20T07:21:20.432Z,96383.44
2022-11-20T07:22:22.932Z,96389.44
2022-11-20T07:23:24.830Z,96378.88
2022-11-20T07:24:26.607Z,96372.53
2022-11-20T07:25:29.000Z,96376.53
2022-11-20T07:26:30.804Z,96379.56
2022-11-20T07:27:32.614Z,96371.78
2022-11-20T07:28:35.215Z,96375.00
2022-11-20T07:29:36.969Z,96377.75
2022-11-20T07:30:39.323Z,96389.66
2022-11-20T07:31:41.169Z,96385.84
2022-11-20T07:32:42.905Z,96387.25
2022-11-20T07:33:44.731Z,96388.22
2022-11-20T07:34:47.034Z,96394.47
2022-11-20T07:35:48.907Z,96392.88
2022-11-20T07:36:50.843Z,96393.50
2022-11-20T07:37:52.769Z,96386.88
2022-11-20T07:38:55.630Z,96383.31
2022-11-20T07:39:57.441Z,96385.53
2022-11-20T07:40:59.228Z,96385.97
2022-11-20T07:42:01.105Z,96390.19
2022-11-20T07:43:02.915Z,96395.81
2022-11-20T07:44:04.886Z,96391.72
2022-11-20T07:45:07.118Z,96402.09
2022-11-20T07:46:08.962Z,96405.84
2022-11-20T07:47:10.824Z,96405.66
2022-11-20T07:48:12.559Z,96407.25
2022-11-20T07:49:14.522Z,96396.72
2022-11-20T07:50:16.478Z,96396.16
2022-11-20T07:51:18.285Z,96403.41
2022-11-20T07:52:20.125Z,96402.88
2022-11-20T07:53:22.961Z,96400.47
2022-11-20T07:54:24.885Z,96399.09
2022-11-20T07:55:26.693Z,96407.88
2022-11-20T07:56:28.476Z,96401.00
2022-11-20T07:57:30.268Z,96404.38
2022-11-20T07:58:34.357Z,96397.88
2022-11-20T07:59:36.197Z,96391.44
2022-11-20T08:00:37.980Z,96401.44
2022-11-20T08:01:43.232Z,96408.03
2022-11-20T08:02:45.419Z,96403.47
2022-11-20T08:03:47.288Z,96402.31
2022-11-20T08:04:49.253Z,96400.28
2022-11-20T08:05:50.998Z,96401.69
2022-11-20T08:06:55.806Z,96407.06
2022-11-20T08:07:57.571Z,96409.06
2022-11-20T08:08:59.390Z,96402.69
2022-11-20T08:10:01.374Z,96402.31
2022-11-20T08:11:23.420Z,96402.38
2022-11-20T08:12:43.914Z,96400.47
2022-11-20T08:14:03.992Z,96396.50
2022-11-20T08:15:12.548Z,96390.97
2022-11-20T08:16:15.053Z,96403.72
2022-11-20T08:17:16.964Z,96399.16
2022-11-20T08:18:34.387Z,96402.75
2022-11-20T08:19:36.131Z,96394.19
2022-11-20T08:20:38.118Z,96396.06
2022-11-20T08:21:40.440Z,96397.44
2022-11-20T08:22:42.334Z,96399.81
2022-11-20T08:23:44.067Z,96402.00
2022-11-20T08:24:45.872Z,96400.63
2022-11-20T08:25:50.923Z,96399.28
2022-11-20T08:26:52.881Z,96400.06
2022-11-20T08:27:59.289Z,96400.50
2022-11-20T08:29:02.046Z,96396.56
2022-11-20T08:30:04.048Z,96392.00
2022-11-20T08:31:06.072Z,96390.00
2022-11-20T08:32:08.584Z,96397.03
2022-11-20T08:33:10.445Z,96394.69
2022-11-20T08:34:17.619Z,96398.34
2022-11-20T08:35:21.350Z,96393.38
2022-11-20T08:36:23.981Z,96397.19
2022-11-20T08:37:25.766Z,96391.81
2022-11-20T08:38:27.589Z,96386.63
2022-11-20T08:39:29.484Z,96394.41
2022-11-20T08:40:31.339Z,96397.44
2022-11-20T08:41:34.518Z,96393.47
2022-11-20T08:42:36.325Z,96394.88
2022-11-20T08:43:38.087Z,96392.91
2022-11-20T08:44:39.872Z,96399.31
2022-11-20T08:45:41.678Z,96397.31
2022-11-20T08:46:44.896Z,96402.94
2022-11-20T08:47:47.333Z,96397.75
2022-11-20T08:48:49.256Z,96397.94
2022-11-20T08:49:50.992Z,96396.53
2022-11-20T08:50:52.859Z,96391.53
2022-11-20T08:51:56.578Z,96389.31
2022-11-20T08:53:03.530Z,96388.28
2022-11-20T08:54:05.765Z,96394.69
2022-11-20T08:55:07.996Z,96394.13
2022-11-20T08:56:10.942Z,96389.53
2022-11-20T08:57:12.890Z,96395.75
2022-11-20T08:58:14.823Z,96396.13
2022-11-20T08:59:27.387Z,96397.75
2022-11-20T09:00:38.708Z,96396.56
2022-11-20T09:01:40.813Z,96392.97
2022-11-20T09:02:42.764Z,96390.19
2022-11-20T09:03:44.724Z,96402.78
2022-11-20T09:04:46.543Z,96403.03
2022-11-20T09:05:48.431Z,96399.22
2022-11-20T09:06:52.229Z,96402.44
2022-11-20T09:07:57.464Z,96401.25
2022-11-20T09:09:03.476Z,96409.44
2022-11-20T09:10:23.575Z,96404.03
2022-11-20T09:11:26.338Z,96402.25
2022-11-20T09:12:28.112Z,96392.06
2022-11-20T09:13:30.541Z,96395.28
2022-11-20T09:14:32.310Z,96392.66
2022-11-20T09:15:35.088Z,96399.25
2022-11-20T09:16:37.048Z,96398.06
2022-11-20T09:17:38.826Z,96395.47
2022-11-20T09:18:40.755Z,96395.47
2022-11-20T09:19:42.917Z,96398.47
2022-11-20T09:20:45.590Z,96391.81
2022-11-20T09:21:47.499Z,96386.44
2022-11-20T09:22:49.435Z,96389.38
2022-11-20T09:23:51.273Z,96396.19
2022-11-20T09:24:53.100Z,96388.63
2022-11-20T09:25:57.006Z,96381.25
2022-11-20T09:26:58.871Z,96390.44
2022-11-20T09:28:00.838Z,96389.06
2022-11-20T09:29:02.753Z,96393.88
2022-11-20T09:30:05.458Z,96385.91
2022-11-20T09:31:11.296Z,96389.34
2022-11-20T09:32:13.204Z,96389.56
2022-11-20T09:33:15.070Z,96388.38
2022-11-20T09:34:17.030Z,96388.19
2022-11-20T09:35:19.266Z,96392.38
2022-11-20T09:36:21.173Z,96389.94
2022-11-20T09:37:23.014Z,96389.53
2022-11-20T09:38:24.845Z,96396.31
2022-11-20T09:39:26.730Z,96394.16
2022-11-20T09:40:29.870Z,96390.72
2022-11-20T09:41:49.074Z,96386.16
2022-11-20T09:43:07.374Z,96385.16
2022-11-20T09:44:12.351Z,96381.38
2022-11-20T09:45:17.368Z,96386.19
2022-11-20T09:46:29.353Z,96389.22
2022-11-20T09:47:50.074Z,96385.16
2022-11-20T09:48:54.758Z,96380.16
2022-11-20T09:50:03.538Z,96379.53
2022-11-20T09:51:05.428Z,96375.56
2022-11-20T09:52:23.617Z,96367.63
2022-11-20T09:53:35.977Z,96367.63
2022-11-20T09:54:39.616Z,96372.03
2022-11-20T09:55:41.637Z,96367.09
2022-11-20T09:56:45.494Z,96370.50
2022-11-20T09:57:49.103Z,96367.31
2022-11-20T09:58:53.128Z,96367.31
2022-11-20T10:00:01.683Z,96362.56
2022-11-20T10:01:11.003Z,96367.94
2022-11-20T10:02:25.342Z,96366.53
2022-11-20T10:03:56.682Z,96368.72
2022-11-20T10:05:03.358Z,96369.16
2022-11-20T10:06:06.584Z,96368.38
2022-11-20T10:08:46.034Z,96366.22
2022-11-20T10:09:55.637Z,96369.41
2022-11-20T10:11:05.832Z,96368.81
2022-11-20T10:12:19.771Z,96366.03
2022-11-20T10:13:33.727Z,96369.22
2022-11-20T10:14:54.171Z,96374.41
2022-11-20T10:16:05.095Z,96378.59
2022-11-20T10:17:09.901Z,96370.00
2022-11-20T10:18:21.071Z,96368.22
2022-11-20T10:19:49.112Z,96379.81
2022-11-20T10:20:53.930Z,96369.03
2022-11-20T10:22:02.762Z,96362.81
2022-11-20T10:23:04.673Z,96360.03
2022-11-20T10:24:22.321Z,96362.22
2022-11-20T10:25:27.628Z,96359.63
2022-11-20T10:26:49.579Z,96357.03
2022-11-20T10:28:03.830Z,96363.81
2022-11-20T10:29:08.945Z,96365.41
2022-11-20T10:30:13.712Z,96362.59
2022-11-20T10:31:32.863Z,96363.63
2022-11-20T10:32:45.974Z,96362.59
2022-11-20T10:34:11.158Z,96355.81
2022-11-20T10:35:15.359Z,96353.59
2022-11-20T10:36:23.884Z,96354.00
2022-11-20T10:37:30.404Z,96355.41
2022-11-20T10:38:40.839Z,96357.41
2022-11-20T10:39:48.735Z,96354.63
2022-11-20T10:40:54.041Z,96357.03
2022-11-20T10:41:56.231Z,96361.00
2022-11-20T10:43:01.043Z,96352.44
2022-11-20T10:44:43.158Z,96346.81
2022-11-20T10:45:55.666Z,96349.81
2022-11-20T10:46:57.455Z,96345.03
2022-11-20T10:48:19.612Z,96334.81
2022-11-20T10:49:21.679Z,96346.41
2022-11-20T10:50:24.158Z,96346.22
2022-11-20T10:51:35.606Z,96348.81
2022-11-20T10:52:37.369Z,96350.03
2022-11-20T10:53:47.499Z,96352.44
2022-11-20T10:54:55.393Z,96352.63
2022-11-20T10:55:57.055Z,96355.03
2022-11-20T10:57:05.508Z,96357.81
2022-11-20T10:58:26.523Z,96355.81
2022-11-20T10:59:31.696Z,96351.84
2022-11-20T11:00:33.551Z,96358.00
2022-11-20T11:01:40.765Z,96349.22
2022-11-20T11:02:50.149Z,96355.81
2022-11-20T11:03:53.069Z,96360.19
2022-11-20T11:04:55.462Z,96352.81
2022-11-20T11:06:11.885Z,96355.81
2022-11-20T11:07:16.770Z,96352.44
2022-11-20T11:08:20.389Z,96353.81
2022-11-20T11:09:27.883Z,96354.81
2022-11-20T11:10:37.747Z,96359.03
2022-11-20T11:11:39.939Z,96357.03
2022-11-20T11:12:45.177Z,96353.59
2022-11-20T11:13:47.052Z,96353.03
2022-11-20T11:14:53.311Z,96354.63
2022-11-20T11:15:55.575Z,96349.41
2022-11-20T11:16:58.777Z,96351.03
2022-11-20T11:18:00.575Z,96346.44
2022-11-20T11:19:12.843Z,96338.22
2022-11-20T11:20:19.191Z,96342.63
2022-11-20T11:21:27.346Z,96345.44
2022-11-20T11:22:33.526Z,96346.81
2022-11-20T11:23:36.367Z,96344.81
2022-11-20T11:24:43.074Z,96351.41
2022-11-20T11:25:57.329Z,96339.63
2022-11-20T11:27:10.204Z,96341.03
2022-11-20T11:28:18.275Z,96339.03
2022-11-20T11:29:20.569Z,96335.06
2022-11-20T11:30:23.768Z,96336.63
2022-11-20T11:31:26.639Z,96336.44
2022-11-20T11:32:28.519Z,96340.44
2022-11-20T11:33:34.872Z,96327.03
2022-11-20T11:34:36.753Z,96328.44
2022-11-20T11:35:51.548Z,96331.63
2022-11-20T11:36:57.552Z,96332.84
2022-11-20T11:38:08.792Z,96331.81
2022-11-20T11:39:16.497Z,96331.03
2022-11-20T11:40:23.795Z,96329.81
2022-11-20T11:41:29.774Z,96332.03
2022-11-20T11:42:32.080Z,96332.44
2022-11-20T11:43:53.737Z,96333.41
2022-11-20T11:45:07.119Z,96329.44
2022-11-20T11:46:27.506Z,96333.44
2022-11-20T11:47:33.838Z,96331.25
2022-11-20T11:48:35.679Z,96332.63
2022-11-20T11:49:37.610Z,96336.84
2022-11-20T11:50:49.342Z,96338.59
2022-11-20T11:52:11.843Z,96332.03
2022-11-20T11:53:15.956Z,96328.03
2022-11-20T11:54:21.576Z,96337.03
2022-11-20T11:55:41.697Z,96336.63
2022-11-20T11:56:44.091Z,96339.03
2022-11-20T11:57:51.228Z,96335.25
2022-11-20T11:58:53.750Z,96334.41
2022-11-20T12:00:10.824Z,96331.44
2022-11-20T12:01:35.898Z,96328.25
2022-11-20T12:02:40.590Z,96333.44
2022-11-20T12:03:44.054Z,96334.63
2022-11-20T12:04:51.975Z,96323.84
2022-11-20T12:05:59.339Z,96330.63
2022-11-20T12:07:44.461Z,96327.03
2022-11-20T12:08:38.911Z,96326.59
2022-11-20T12:09:45.120Z,96328.19
2022-11-20T12:10:54.846Z,96326.19
2022-11-20T12:12:31.903Z,96330.97
2022-11-20T12:14:04.771Z,96323.75
2022-11-20T12:15:11.078Z,96327.38
2022-11-20T12:16:15.315Z,96329.19
2022-11-20T12:17:17.202Z,96328.56
2022-11-20T12:18:20.629Z,96328.16
2022-11-20T12:19:22.777Z,96328.53
2022-11-20T12:20:27.652Z,96323.72
2022-11-20T12:21:38.615Z,96324.13
2022-11-20T12:22:54.058Z,96319.72
2022-11-20T12:24:03.443Z,96323.69
2022-11-20T12:25:20.562Z,96317.09
2022-11-20T12:27:00.804Z,96316.13
2022-11-20T12:28:25.631Z,96315.72
2022-11-20T12:29:39.681Z,96317.72
2022-11-20T12:30:54.717Z,96318.53
2022-11-20T12:32:05.679Z,96319.91
2022-11-20T12:33:16.281Z,96315.31
2022-11-20T12:34:17.997Z,96313.28
2022-11-20T12:35:31.580Z,96312.50
2022-11-20T12:36:42.398Z,96313.09
2022-11-20T12:37:47.486Z,96318.09